sensor_id;sensor_type;location;lat;lon;timestamp;pressure;altitude;pressure_sealevel;temperature;humidity
4326;BME280;58429;49.826;10.880;2023-09-19T00:00:28;98157;;;16.25;85.41
4326;BME280;58429;49.826;10.880;2023-09-19T00:01:28;98152;;;16.23;85.42
4326;BME280;58429;49.826;10.880;2023-09-19T00:02:28;98155;;;16.2;85.38
4326;BME280;58429;49.826;10.880;2023-09-19T00:03:28;98154;;;16.19;85.39
4326;BME280;58429;49.826;10.880;2023-09-19T00:04:30;98157;;;16.15;85.44
4326;BME280;58429;49.826;10.880;2023-09-19T00:05:29;98158;;;16.14;85.39
4326;BME280;58429;49.826;10.880;2023-09-19T00:06:28;98161;;;16.18;85.33
4326;BME280;58429;49.826;10.880;2023-09-19T00:07:28;98158;;;16.16;85.29
4326;BME280;58429;49.826;10.880;2023-09-19T00:08:28;98165;;;16.1;85.26
4326;BME280;58429;49.826;10.880;2023-09-19T00:09:28;98164;;;16.11;85.29
4326;BME280;58429;49.826;10.880;2023-09-19T00:10:28;98169;;;16.09;85.27
4326;BME280;58429;49.826;10.880;2023-09-19T00:11:28;98164;;;16.08;85.29
4326;BME280;58429;49.826;10.880;2023-09-19T00:12:28;98173;;;16.06;85.29
4326;BME280;58429;49.826;10.880;2023-09-19T00:13:28;98170;;;16.02;85.32
4326;BME280;58429;49.826;10.880;2023-09-19T00:14:28;98163;;;16.01;85.31
4326;BME280;58429;49.826;10.880;2023-09-19T00:15:28;98162;;;16.02;85.35
4326;BME280;58429;49.826;10.880;2023-09-19T00:16:28;98164;;;16.03;85.32
4326;BME280;58429;49.826;10.880;2023-09-19T00:17:28;98166;;;16.05;85.28
4326;BME280;58429;49.826;10.880;2023-09-19T00:18:28;98165;;;16.04;85.28
4326;BME280;58429;49.826;10.880;2023-09-19T00:19:29;98162;;;16.04;85.31
4326;BME280;58429;49.826;10.880;2023-09-19T00:20:28;98163;;;16.04;85.36
4326;BME280;58429;49.826;10.880;2023-09-19T00:21:28;98165;;;16.04;85.4
4326;BME280;58429;49.826;10.880;2023-09-19T00:22:28;98169;;;15.98;85.37
4326;BME280;58429;49.826;10.880;2023-09-19T00:23:28;98165;;;15.97;85.4
4326;BME280;58429;49.826;10.880;2023-09-19T00:24:28;98161;;;15.97;85.41
4326;BME280;58429;49.826;10.880;2023-09-19T00:25:28;98170;;;15.95;85.43
4326;BME280;58429;49.826;10.880;2023-09-19T00:26:28;98164;;;15.95;85.61
4326;BME280;58429;49.826;10.880;2023-09-19T00:27:28;98174;;;15.94;85.73
4326;BME280;58429;49.826;10.880;2023-09-19T00:28:28;98174;;;15.99;85.79
4326;BME280;58429;49.826;10.880;2023-09-19T00:29:28;98168;;;16.04;86.2
4326;BME280;58429;49.826;10.880;2023-09-19T00:30:28;98174;;;16.01;86.26
4326;BME280;58429;49.826;10.880;2023-09-19T00:31:28;98171;;;16.02;86.27
4326;BME280;58429;49.826;10.880;2023-09-19T00:32:28;98172;;;16.02;86.22
4326;BME280;58429;49.826;10.880;2023-09-19T00:33:28;98174;;;16.04;86.2
4326;BME280;58429;49.826;10.880;2023-09-19T00:34:28;98176;;;16.08;86.16
4326;BME280;58429;49.826;10.880;2023-09-19T00:35:28;98176;;;16.06;86.01
4326;BME280;58429;49.826;10.880;2023-09-19T00:36:28;98177;;;16.06;85.91
4326;BME280;58429;49.826;10.880;2023-09-19T00:37:28;98179;;;16.04;85.81
4326;BME280;58429;49.826;10.880;2023-09-19T00:38:28;98179;;;16.04;85.72
4326;BME280;58429;49.826;10.880;2023-09-19T00:39:28;98178;;;16.02;85.61
4326;BME280;58429;49.826;10.880;2023-09-19T00:40:28;98178;;;16;85.42
4326;BME280;58429;49.826;10.880;2023-09-19T00:41:28;98180;;;15.98;85.27
4326;BME280;58429;49.826;10.880;2023-09-19T00:42:28;98172;;;16;85.26
4326;BME280;58429;49.826;10.880;2023-09-19T00:43:28;98176;;;15.96;85.2
4326;BME280;58429;49.826;10.880;2023-09-19T00:44:28;98181;;;15.96;85.31
4326;BME280;58429;49.826;10.880;2023-09-19T00:45:28;98180;;;15.93;85.36
4326;BME280;58429;49.826;10.880;2023-09-19T00:46:28;98177;;;15.94;85.38
4326;BME280;58429;49.826;10.880;2023-09-19T00:47:28;98177;;;15.91;85.43
4326;BME280;58429;49.826;10.880;2023-09-19T00:48:28;98172;;;15.89;85.51
4326;BME280;58429;49.826;10.880;2023-09-19T00:49:28;98179;;;15.89;85.53
4326;BME280;58429;49.826;10.880;2023-09-19T00:50:28;98172;;;15.9;85.54
4326;BME280;58429;49.826;10.880;2023-09-19T00:51:28;98170;;;15.91;85.5
4326;BME280;58429;49.826;10.880;2023-09-19T00:52:28;98176;;;15.87;85.46
4326;BME280;58429;49.826;10.880;2023-09-19T00:53:28;98175;;;15.83;85.39
4326;BME280;58429;49.826;10.880;2023-09-19T00:54:28;98181;;;15.85;85.43
4326;BME280;58429;49.826;10.880;2023-09-19T00:55:28;98185;;;15.81;85.51
4326;BME280;58429;49.826;10.880;2023-09-19T00:56:28;98187;;;15.84;85.66
4326;BME280;58429;49.826;10.880;2023-09-19T00:57:28;98182;;;15.84;85.66
4326;BME280;58429;49.826;10.880;2023-09-19T00:58:28;98190;;;15.83;85.59
4326;BME280;58429;49.826;10.880;2023-09-19T00:59:28;98184;;;15.84;85.67
4326;BME280;58429;49.826;10.880;2023-09-19T01:00:28;98186;;;15.82;85.69
4326;BME280;58429;49.826;10.880;2023-09-19T01:01:28;98191;;;15.83;85.68
4326;BME280;58429;49.826;10.880;2023-09-19T01:02:28;98192;;;15.83;85.8
4326;BME280;58429;49.826;10.880;2023-09-19T01:03:28;98196;;;15.82;85.74
4326;BME280;58429;49.826;10.880;2023-09-19T01:04:29;98191;;;15.86;85.72
4326;BME280;58429;49.826;10.880;2023-09-19T01:05:28;98198;;;15.85;85.68
4326;BME280;58429;49.826;10.880;2023-09-19T01:06:28;98197;;;15.86;85.55
4326;BME280;58429;49.826;10.880;2023-09-19T01:07:28;98189;;;15.82;85.33
4326;BME280;58429;49.826;10.880;2023-09-19T01:08:28;98192;;;15.8;85.27
4326;BME280;58429;49.826;10.880;2023-09-19T01:09:28;98191;;;15.8;85.21
4326;BME280;58429;49.826;10.880;2023-09-19T01:10:28;98198;;;15.76;85.11
4326;BME280;58429;49.826;10.880;2023-09-19T01:11:31;98192;;;15.77;85.27
4326;BME280;58429;49.826;10.880;2023-09-19T01:12:30;98191;;;15.81;85.34
4326;BME280;58429;49.826;10.880;2023-09-19T01:13:29;98189;;;15.82;85.34
4326;BME280;58429;49.826;10.880;2023-09-19T01:14:29;98192;;;15.82;85.28
4326;BME280;58429;49.826;10.880;2023-09-19T01:15:31;98194;;;15.84;85.25
4326;BME280;58429;49.826;10.880;2023-09-19T01:16:32;98188;;;15.84;85.22
4326;BME280;58429;49.826;10.880;2023-09-19T01:17:29;98184;;;15.86;85.17
4326;BME280;58429;49.826;10.880;2023-09-19T01:18:30;98182;;;15.88;85.1
4326;BME280;58429;49.826;10.880;2023-09-19T01:19:45;98186;;;15.89;85.07
4326;BME280;58429;49.826;10.880;2023-09-19T01:20:32;98189;;;15.89;85.01
4326;BME280;58429;49.826;10.880;2023-09-19T01:21:29;98193;;;15.89;84.94
4326;BME280;58429;49.826;10.880;2023-09-19T01:22:29;98190;;;15.94;84.88
4326;BME280;58429;49.826;10.880;2023-09-19T01:23:29;98200;;;15.95;84.77
4326;BME280;58429;49.826;10.880;2023-09-19T01:24:34;98199;;;15.94;84.72
4326;BME280;58429;49.826;10.880;2023-09-19T01:25:42;98202;;;15.97;84.75
4326;BME280;58429;49.826;10.880;2023-09-19T01:26:30;98202;;;15.94;84.67
4326;BME280;58429;49.826;10.880;2023-09-19T01:27:35;98204;;;16.03;84.66
4326;BME280;58429;49.826;10.880;2023-09-19T01:28:30;98203;;;15.98;84.64
4326;BME280;58429;49.826;10.880;2023-09-19T01:29:33;98202;;;15.99;84.57
4326;BME280;58429;49.826;10.880;2023-09-19T01:30:31;98205;;;16;84.52
4326;BME280;58429;49.826;10.880;2023-09-19T01:31:29;98200;;;16.04;84.44
4326;BME280;58429;49.826;10.880;2023-09-19T01:32:28;98209;;;16.01;84.37
4326;BME280;58429;49.826;10.880;2023-09-19T01:33:28;98207;;;16.04;84.36
4326;BME280;58429;49.826;10.880;2023-09-19T01:34:42;98215;;;16.08;84.32
4326;BME280;58429;49.826;10.880;2023-09-19T01:35:28;98216;;;16.09;84.33
4326;BME280;58429;49.826;10.880;2023-09-19T01:36:30;98211;;;16.07;84.28
4326;BME280;58429;49.826;10.880;2023-09-19T01:37:28;98214;;;16.08;84.23
4326;BME280;58429;49.826;10.880;2023-09-19T01:38:28;98211;;;16.08;84.19
4326;BME280;58429;49.826;10.880;2023-09-19T01:39:28;98214;;;16.06;84.14
4326;BME280;58429;49.826;10.880;2023-09-19T01:40:28;98210;;;16.05;84.17
4326;BME280;58429;49.826;10.880;2023-09-19T01:41:33;98212;;;16.01;84.15
4326;BME280;58429;49.826;10.880;2023-09-19T01:42:31;98210;;;16.04;84.13
4326;BME280;58429;49.826;10.880;2023-09-19T01:43:30;98207;;;16.03;84.17
4326;BME280;58429;49.826;10.880;2023-09-19T01:44:30;98210;;;16.04;84.17
4326;BME280;58429;49.826;10.880;2023-09-19T01:45:31;98201;;;16.02;84.21
4326;BME280;58429;49.826;10.880;2023-09-19T01:46:30;98203;;;16.03;84.21
4326;BME280;58429;49.826;10.880;2023-09-19T01:47:32;98204;;;16.02;84.2
4326;BME280;58429;49.826;10.880;2023-09-19T01:48:30;98208;;;16.03;84.2
4326;BME280;58429;49.826;10.880;2023-09-19T01:49:32;98216;;;16.02;84.21
4326;BME280;58429;49.826;10.880;2023-09-19T01:50:29;98210;;;16.06;84.25
4326;BME280;58429;49.826;10.880;2023-09-19T01:51:31;98220;;;16.04;84.26
4326;BME280;58429;49.826;10.880;2023-09-19T01:52:30;98215;;;16.03;84.31
4326;BME280;58429;49.826;10.880;2023-09-19T01:53:30;98216;;;16.01;84.29
4326;BME280;58429;49.826;10.880;2023-09-19T01:54:30;98218;;;16.02;84.27
4326;BME280;58429;49.826;10.880;2023-09-19T01:55:28;98223;;;16.04;84.3
4326;BME280;58429;49.826;10.880;2023-09-19T01:56:30;98223;;;16.04;84.31
4326;BME280;58429;49.826;10.880;2023-09-19T01:57:29;98216;;;16.04;84.28
4326;BME280;58429;49.826;10.880;2023-09-19T01:58:30;98223;;;16.04;84.29
4326;BME280;58429;49.826;10.880;2023-09-19T01:59:31;98213;;;16.03;84.25
4326;BME280;58429;49.826;10.880;2023-09-19T02:00:28;98220;;;16.05;84.25
4326;BME280;58429;49.826;10.880;2023-09-19T02:01:33;98222;;;16.07;84.27
4326;BME280;58429;49.826;10.880;2023-09-19T02:02:28;98223;;;16.06;84.26
4326;BME280;58429;49.826;10.880;2023-09-19T02:03:28;98225;;;16.07;84.24
4326;BME280;58429;49.826;10.880;2023-09-19T02:04:28;98222;;;16.11;84.26
4326;BME280;58429;49.826;10.880;2023-09-19T02:05:28;98223;;;16.04;84.22
4326;BME280;58429;49.826;10.880;2023-09-19T02:06:28;98227;;;16.09;84.24
4326;BME280;58429;49.826;10.880;2023-09-19T02:07:28;98230;;;16.1;84.21
4326;BME280;58429;49.826;10.880;2023-09-19T02:08:28;98232;;;16.07;84.16
4326;BME280;58429;49.826;10.880;2023-09-19T02:09:28;98233;;;16.1;84.19
4326;BME280;58429;49.826;10.880;2023-09-19T02:10:28;98237;;;16.12;84.12
4326;BME280;58429;49.826;10.880;2023-09-19T02:11:28;98231;;;16.13;84.13
4326;BME280;58429;49.826;10.880;2023-09-19T02:12:28;98230;;;16.13;84.06
4326;BME280;58429;49.826;10.880;2023-09-19T02:13:28;98233;;;16.16;84.06
4326;BME280;58429;49.826;10.880;2023-09-19T02:14:28;98231;;;16.14;84.05
4326;BME280;58429;49.826;10.880;2023-09-19T02:15:28;98229;;;16.11;84.13
4326;BME280;58429;49.826;10.880;2023-09-19T02:16:28;98225;;;16.14;84.09
4326;BME280;58429;49.826;10.880;2023-09-19T02:17:28;98233;;;16.17;84.1
4326;BME280;58429;49.826;10.880;2023-09-19T02:18:28;98233;;;16.15;84.14
4326;BME280;58429;49.826;10.880;2023-09-19T02:19:28;98229;;;16.14;84.11
4326;BME280;58429;49.826;10.880;2023-09-19T02:20:28;98229;;;16.14;84.09
4326;BME280;58429;49.826;10.880;2023-09-19T02:21:28;98233;;;16.16;84.12
4326;BME280;58429;49.826;10.880;2023-09-19T02:22:28;98223;;;16.2;84.09
4326;BME280;58429;49.826;10.880;2023-09-19T02:23:28;98221;;;16.17;84.12
4326;BME280;58429;49.826;10.880;2023-09-19T02:24:29;98228;;;16.18;84.16
4326;BME280;58429;49.826;10.880;2023-09-19T02:25:28;98231;;;16.18;84.23
4326;BME280;58429;49.826;10.880;2023-09-19T02:26:28;98231;;;16.18;84.3
4326;BME280;58429;49.826;10.880;2023-09-19T02:27:28;98226;;;16.24;84.29
4326;BME280;58429;49.826;10.880;2023-09-19T02:28:28;98228;;;16.16;84.22
4326;BME280;58429;49.826;10.880;2023-09-19T02:29:28;98229;;;16.21;84.37
4326;BME280;58429;49.826;10.880;2023-09-19T02:30:28;98226;;;16.17;84.34
4326;BME280;58429;49.826;10.880;2023-09-19T02:31:28;98233;;;16.19;84.37
4326;BME280;58429;49.826;10.880;2023-09-19T02:32:28;98226;;;16.16;84.37
4326;BME280;58429;49.826;10.880;2023-09-19T02:33:29;98230;;;16.16;84.49
4326;BME280;58429;49.826;10.880;2023-09-19T02:34:28;98232;;;16.13;84.48
4326;BME280;58429;49.826;10.880;2023-09-19T02:35:28;98230;;;16.19;84.47
4326;BME280;58429;49.826;10.880;2023-09-19T02:36:28;98229;;;16.17;84.59
4326;BME280;58429;49.826;10.880;2023-09-19T02:37:28;98225;;;16.16;84.58
4326;BME280;58429;49.826;10.880;2023-09-19T02:38:29;98228;;;16.15;84.67
4326;BME280;58429;49.826;10.880;2023-09-19T02:39:28;98226;;;16.16;84.76
4326;BME280;58429;49.826;10.880;2023-09-19T02:40:29;98226;;;16.13;84.73
4326;BME280;58429;49.826;10.880;2023-09-19T02:41:28;98231;;;16.1;84.76
4326;BME280;58429;49.826;10.880;2023-09-19T02:42:28;98228;;;16.1;84.91
4326;BME280;58429;49.826;10.880;2023-09-19T02:43:28;98228;;;16.11;84.97
4326;BME280;58429;49.826;10.880;2023-09-19T02:44:28;98231;;;16.09;84.86
4326;BME280;58429;49.826;10.880;2023-09-19T02:45:28;98227;;;16.08;84.88
4326;BME280;58429;49.826;10.880;2023-09-19T02:46:28;98233;;;16.09;84.87
4326;BME280;58429;49.826;10.880;2023-09-19T02:47:28;98230;;;16.1;84.82
4326;BME280;58429;49.826;10.880;2023-09-19T02:48:28;98230;;;16.08;84.77
4326;BME280;58429;49.826;10.880;2023-09-19T02:49:29;98230;;;16.16;84.78
4326;BME280;58429;49.826;10.880;2023-09-19T02:50:28;98234;;;16.11;84.75
4326;BME280;58429;49.826;10.880;2023-09-19T02:51:28;98236;;;16.09;84.79
4326;BME280;58429;49.826;10.880;2023-09-19T02:52:28;98239;;;16.08;84.72
4326;BME280;58429;49.826;10.880;2023-09-19T02:53:28;98234;;;16.06;84.94
4326;BME280;58429;49.826;10.880;2023-09-19T02:54:28;98238;;;16.09;84.89
4326;BME280;58429;49.826;10.880;2023-09-19T02:55:28;98234;;;16.1;84.85
4326;BME280;58429;49.826;10.880;2023-09-19T02:56:33;98237;;;16.07;84.83
4326;BME280;58429;49.826;10.880;2023-09-19T02:57:28;98238;;;16.1;84.88
4326;BME280;58429;49.826;10.880;2023-09-19T02:58:28;98240;;;16.06;84.82
4326;BME280;58429;49.826;10.880;2023-09-19T02:59:28;98240;;;16.06;84.89
4326;BME280;58429;49.826;10.880;2023-09-19T03:00:28;98244;;;16.05;84.92
4326;BME280;58429;49.826;10.880;2023-09-19T03:01:28;98245;;;16.05;85.05
4326;BME280;58429;49.826;10.880;2023-09-19T03:02:28;98246;;;16.04;85.12
4326;BME280;58429;49.826;10.880;2023-09-19T03:03:28;98244;;;16.02;85.19
4326;BME280;58429;49.826;10.880;2023-09-19T03:04:28;98242;;;16;85.19
4326;BME280;58429;49.826;10.880;2023-09-19T03:05:29;98245;;;16.07;85.25
4326;BME280;58429;49.826;10.880;2023-09-19T03:06:28;98247;;;16.07;85.19
4326;BME280;58429;49.826;10.880;2023-09-19T03:07:28;98246;;;16.04;85.12
4326;BME280;58429;49.826;10.880;2023-09-19T03:08:28;98247;;;16.04;85.13
4326;BME280;58429;49.826;10.880;2023-09-19T03:09:28;98252;;;16.06;85.24
4326;BME280;58429;49.826;10.880;2023-09-19T03:10:28;98259;;;16.05;85.27
4326;BME280;58429;49.826;10.880;2023-09-19T03:11:28;98246;;;16.04;85.21
4326;BME280;58429;49.826;10.880;2023-09-19T03:12:28;98251;;;16.01;85.23
4326;BME280;58429;49.826;10.880;2023-09-19T03:13:28;98258;;;16.04;85.25
4326;BME280;58429;49.826;10.880;2023-09-19T03:14:28;98252;;;16.03;85.27
4326;BME280;58429;49.826;10.880;2023-09-19T03:15:28;98248;;;16.03;85.27
4326;BME280;58429;49.826;10.880;2023-09-19T03:16:28;98254;;;16.01;85.23
4326;BME280;58429;49.826;10.880;2023-09-19T03:17:28;98258;;;16.04;85.24
4326;BME280;58429;49.826;10.880;2023-09-19T03:18:28;98259;;;16.01;85.18
4326;BME280;58429;49.826;10.880;2023-09-19T03:19:28;98257;;;16;85.33
4326;BME280;58429;49.826;10.880;2023-09-19T03:20:29;98254;;;16.02;85.28
4326;BME280;58429;49.826;10.880;2023-09-19T03:21:29;98261;;;16.01;85.36
4326;BME280;58429;49.826;10.880;2023-09-19T03:22:29;98259;;;16.06;85.31
4326;BME280;58429;49.826;10.880;2023-09-19T03:23:28;98262;;;16.06;85.3
4326;BME280;58429;49.826;10.880;2023-09-19T03:24:28;98261;;;16.06;85.36
4326;BME280;58429;49.826;10.880;2023-09-19T03:25:28;98267;;;16.04;85.35
4326;BME280;58429;49.826;10.880;2023-09-19T03:26:28;98268;;;16.05;85.5
4326;BME280;58429;49.826;10.880;2023-09-19T03:27:28;98270;;;16.02;85.58
4326;BME280;58429;49.826;10.880;2023-09-19T03:28:28;98270;;;16.08;85.62
4326;BME280;58429;49.826;10.880;2023-09-19T03:29:29;98268;;;16.09;85.55
4326;BME280;58429;49.826;10.880;2023-09-19T03:30:28;98265;;;16.07;85.54
4326;BME280;58429;49.826;10.880;2023-09-19T03:31:28;98270;;;16.08;85.62
4326;BME280;58429;49.826;10.880;2023-09-19T03:32:28;98269;;;16.05;85.66
4326;BME280;58429;49.826;10.880;2023-09-19T03:33:28;98263;;;16.06;85.72
4326;BME280;58429;49.826;10.880;2023-09-19T03:34:28;98267;;;16.07;85.69
4326;BME280;58429;49.826;10.880;2023-09-19T03:35:28;98269;;;16.06;85.61
4326;BME280;58429;49.826;10.880;2023-09-19T03:36:28;98268;;;16.06;85.69
4326;BME280;58429;49.826;10.880;2023-09-19T03:37:29;98269;;;16.06;85.89
4326;BME280;58429;49.826;10.880;2023-09-19T03:38:28;98262;;;16.05;85.82
4326;BME280;58429;49.826;10.880;2023-09-19T03:39:28;98262;;;16.03;85.88
4326;BME280;58429;49.826;10.880;2023-09-19T03:40:28;98264;;;16.02;85.93
4326;BME280;58429;49.826;10.880;2023-09-19T03:41:28;98262;;;16.04;86.03
4326;BME280;58429;49.826;10.880;2023-09-19T03:42:28;98261;;;16.05;86.06
4326;BME280;58429;49.826;10.880;2023-09-19T03:43:28;98259;;;16.07;86.06
4326;BME280;58429;49.826;10.880;2023-09-19T03:44:28;98267;;;16.08;86.02
4326;BME280;58429;49.826;10.880;2023-09-19T03:45:29;98263;;;16.08;85.83
4326;BME280;58429;49.826;10.880;2023-09-19T03:46:28;98266;;;16.09;85.85
4326;BME280;58429;49.826;10.880;2023-09-19T03:47:28;98268;;;16.1;85.83
4326;BME280;58429;49.826;10.880;2023-09-19T03:48:28;98265;;;16.15;85.92
4326;BME280;58429;49.826;10.880;2023-09-19T03:49:28;98266;;;16.15;85.96
4326;BME280;58429;49.826;10.880;2023-09-19T03:50:28;98266;;;16.13;85.91
4326;BME280;58429;49.826;10.880;2023-09-19T03:51:28;98265;;;16.17;86.05
4326;BME280;58429;49.826;10.880;2023-09-19T03:52:28;98267;;;16.2;86.05
4326;BME280;58429;49.826;10.880;2023-09-19T03:53:29;98270;;;16.22;85.95
4326;BME280;58429;49.826;10.880;2023-09-19T03:54:28;98267;;;16.24;85.91
4326;BME280;58429;49.826;10.880;2023-09-19T03:55:28;98267;;;16.25;85.88
4326;BME280;58429;49.826;10.880;2023-09-19T03:56:28;98265;;;16.27;85.93
4326;BME280;58429;49.826;10.880;2023-09-19T03:57:28;98262;;;16.25;85.89
4326;BME280;58429;49.826;10.880;2023-09-19T03:58:28;98270;;;16.28;85.81
4326;BME280;58429;49.826;10.880;2023-09-19T03:59:28;98266;;;16.29;85.85
4326;BME280;58429;49.826;10.880;2023-09-19T04:00:28;98269;;;16.29;85.74
4326;BME280;58429;49.826;10.880;2023-09-19T04:01:29;98268;;;16.29;85.75
4326;BME280;58429;49.826;10.880;2023-09-19T04:02:28;98270;;;16.28;85.72
4326;BME280;58429;49.826;10.880;2023-09-19T04:03:28;98274;;;16.3;85.71
4326;BME280;58429;49.826;10.880;2023-09-19T04:04:29;98265;;;16.32;85.76
4326;BME280;58429;49.826;10.880;2023-09-19T04:05:28;98269;;;16.3;85.81
4326;BME280;58429;49.826;10.880;2023-09-19T04:06:28;98277;;;16.32;85.81
4326;BME280;58429;49.826;10.880;2023-09-19T04:07:28;98272;;;16.29;85.77
4326;BME280;58429;49.826;10.880;2023-09-19T04:08:28;98275;;;16.29;85.77
4326;BME280;58429;49.826;10.880;2023-09-19T04:09:29;98274;;;16.29;85.78
4326;BME280;58429;49.826;10.880;2023-09-19T04:10:28;98274;;;16.32;85.79
4326;BME280;58429;49.826;10.880;2023-09-19T04:11:28;98279;;;16.32;85.73
4326;BME280;58429;49.826;10.880;2023-09-19T04:12:28;98274;;;16.32;85.63
4326;BME280;58429;49.826;10.880;2023-09-19T04:13:28;98277;;;16.31;85.65
4326;BME280;58429;49.826;10.880;2023-09-19T04:14:28;98280;;;16.31;85.71
4326;BME280;58429;49.826;10.880;2023-09-19T04:15:28;98280;;;16.31;85.7
4326;BME280;58429;49.826;10.880;2023-09-19T04:16:29;98279;;;16.31;85.58
4326;BME280;58429;49.826;10.880;2023-09-19T04:17:29;98279;;;16.32;85.7
4326;BME280;58429;49.826;10.880;2023-09-19T04:18:29;98281;;;16.33;85.54
4326;BME280;58429;49.826;10.880;2023-09-19T04:19:28;98286;;;16.32;85.5
4326;BME280;58429;49.826;10.880;2023-09-19T04:20:28;98282;;;16.32;85.52
4326;BME280;58429;49.826;10.880;2023-09-19T04:21:28;98286;;;16.3;85.61
4326;BME280;58429;49.826;10.880;2023-09-19T04:22:28;98281;;;16.31;85.61
4326;BME280;58429;49.826;10.880;2023-09-19T04:23:28;98283;;;16.33;85.52
4326;BME280;58429;49.826;10.880;2023-09-19T04:24:29;98283;;;16.32;85.61
4326;BME280;58429;49.826;10.880;2023-09-19T04:25:29;98282;;;16.32;85.65
4326;BME280;58429;49.826;10.880;2023-09-19T04:26:28;98283;;;16.33;85.58
4326;BME280;58429;49.826;10.880;2023-09-19T04:27:28;98282;;;16.33;85.52
4326;BME280;58429;49.826;10.880;2023-09-19T04:28:28;98291;;;16.32;85.61
4326;BME280;58429;49.826;10.880;2023-09-19T04:29:29;98286;;;16.33;85.56
4326;BME280;58429;49.826;10.880;2023-09-19T04:30:28;98292;;;16.34;85.58
4326;BME280;58429;49.826;10.880;2023-09-19T04:31:28;98285;;;16.33;85.53
4326;BME280;58429;49.826;10.880;2023-09-19T04:32:28;98290;;;16.33;85.5
4326;BME280;58429;49.826;10.880;2023-09-19T04:33:28;98296;;;16.34;85.51
4326;BME280;58429;49.826;10.880;2023-09-19T04:34:28;98288;;;16.32;85.63
4326;BME280;58429;49.826;10.880;2023-09-19T04:35:28;98287;;;16.36;85.7
4326;BME280;58429;49.826;10.880;2023-09-19T04:36:28;98296;;;16.34;85.64
4326;BME280;58429;49.826;10.880;2023-09-19T04:37:28;98289;;;16.33;85.65
4326;BME280;58429;49.826;10.880;2023-09-19T04:38:28;98291;;;16.34;85.69
4326;BME280;58429;49.826;10.880;2023-09-19T04:39:28;98297;;;16.34;85.72
4326;BME280;58429;49.826;10.880;2023-09-19T04:40:29;98295;;;16.33;85.66
4326;BME280;58429;49.826;10.880;2023-09-19T04:41:29;98294;;;16.33;85.71
4326;BME280;58429;49.826;10.880;2023-09-19T04:42:29;98294;;;16.35;85.78
4326;BME280;58429;49.826;10.880;2023-09-19T04:43:29;98298;;;16.36;85.78
4326;BME280;58429;49.826;10.880;2023-09-19T04:44:29;98300;;;16.33;85.75
4326;BME280;58429;49.826;10.880;2023-09-19T04:45:29;98301;;;16.34;85.7
4326;BME280;58429;49.826;10.880;2023-09-19T04:46:29;98307;;;16.34;85.68
4326;BME280;58429;49.826;10.880;2023-09-19T04:47:29;98308;;;16.34;85.91
4326;BME280;58429;49.826;10.880;2023-09-19T04:48:28;98301;;;16.33;85.94
4326;BME280;58429;49.826;10.880;2023-09-19T04:49:29;98298;;;16.33;85.94
4326;BME280;58429;49.826;10.880;2023-09-19T04:50:29;98302;;;16.33;86.02
4326;BME280;58429;49.826;10.880;2023-09-19T04:51:28;98305;;;16.3;86
4326;BME280;58429;49.826;10.880;2023-09-19T04:52:30;98304;;;16.3;86.14
4326;BME280;58429;49.826;10.880;2023-09-19T04:53:29;98301;;;16.32;86.25
4326;BME280;58429;49.826;10.880;2023-09-19T04:54:29;98305;;;16.33;86.35
4326;BME280;58429;49.826;10.880;2023-09-19T04:55:29;98305;;;16.28;86.31
4326;BME280;58429;49.826;10.880;2023-09-19T04:56:28;98307;;;16.32;86.33
4326;BME280;58429;49.826;10.880;2023-09-19T04:57:29;98307;;;16.28;86.45
4326;BME280;58429;49.826;10.880;2023-09-19T04:58:29;98303;;;16.27;86.55
4326;BME280;58429;49.826;10.880;2023-09-19T04:59:28;98309;;;16.28;86.72
4326;BME280;58429;49.826;10.880;2023-09-19T05:00:29;98301;;;16.26;86.83
4326;BME280;58429;49.826;10.880;2023-09-19T05:01:29;98310;;;16.24;86.93
4326;BME280;58429;49.826;10.880;2023-09-19T05:02:29;98311;;;16.22;87.1
4326;BME280;58429;49.826;10.880;2023-09-19T05:03:29;98305;;;16.21;87.13
4326;BME280;58429;49.826;10.880;2023-09-19T05:04:29;98307;;;16.21;87.05
4326;BME280;58429;49.826;10.880;2023-09-19T05:05:29;98305;;;16.17;87.21
4326;BME280;58429;49.826;10.880;2023-09-19T05:06:29;98312;;;16.19;87.24
4326;BME280;58429;49.826;10.880;2023-09-19T05:07:28;98315;;;16.18;87.35
4326;BME280;58429;49.826;10.880;2023-09-19T05:08:29;98316;;;16.15;87.48
4326;BME280;58429;49.826;10.880;2023-09-19T05:09:29;98315;;;16.14;87.43
4326;BME280;58429;49.826;10.880;2023-09-19T05:10:29;98322;;;16.13;87.46
4326;BME280;58429;49.826;10.880;2023-09-19T05:11:29;98318;;;16.12;87.5
4326;BME280;58429;49.826;10.880;2023-09-19T05:12:29;98332;;;16.13;87.57
4326;BME280;58429;49.826;10.880;2023-09-19T05:13:29;98325;;;16.13;87.43
4326;BME280;58429;49.826;10.880;2023-09-19T05:14:29;98327;;;16.1;87.46
4326;BME280;58429;49.826;10.880;2023-09-19T05:15:29;98333;;;16.12;87.46
4326;BME280;58429;49.826;10.880;2023-09-19T05:16:29;98332;;;16.09;87.59
4326;BME280;58429;49.826;10.880;2023-09-19T05:17:29;98338;;;16.08;87.62
4326;BME280;58429;49.826;10.880;2023-09-19T05:18:29;98338;;;16.07;87.68
4326;BME280;58429;49.826;10.880;2023-09-19T05:19:29;98336;;;16.08;87.73
4326;BME280;58429;49.826;10.880;2023-09-19T05:20:29;98339;;;16.09;87.9
4326;BME280;58429;49.826;10.880;2023-09-19T05:21:30;98346;;;16.01;88.07
4326;BME280;58429;49.826;10.880;2023-09-19T05:22:29;98350;;;16.06;88.19
4326;BME280;58429;49.826;10.880;2023-09-19T05:23:29;98348;;;16.02;88.18
4326;BME280;58429;49.826;10.880;2023-09-19T05:24:29;98345;;;16.01;88.36
4326;BME280;58429;49.826;10.880;2023-09-19T05:25:29;98351;;;16.01;88.49
4326;BME280;58429;49.826;10.880;2023-09-19T05:26:29;98350;;;15.95;88.71
4326;BME280;58429;49.826;10.880;2023-09-19T05:27:29;98349;;;15.96;88.64
4326;BME280;58429;49.826;10.880;2023-09-19T05:28:29;98350;;;15.93;88.69
4326;BME280;58429;49.826;10.880;2023-09-19T05:29:29;98357;;;15.96;88.62
4326;BME280;58429;49.826;10.880;2023-09-19T05:30:29;98353;;;15.91;88.6
4326;BME280;58429;49.826;10.880;2023-09-19T05:31:29;98353;;;15.87;88.73